createdAt,value
2023-02-06T00:02:24.000Z,7.5
2023-02-06T00:07:25.000Z,7.61
2023-02-06T00:12:24.000Z,7.46
2023-02-06T00:17:25.000Z,7.6
2023-02-06T00:22:24.000Z,7.6
2023-02-06T00:27:25.000Z,7.95
2023-02-06T00:32:24.000Z,7.76
2023-02-06T00:37:25.000Z,7.73
2023-02-06T00:42:24.000Z,7.41
2023-02-06T00:47:25.000Z,7.52
2023-02-06T00:52:24.000Z,7.51
2023-02-06T00:57:24.000Z,7.6
2023-02-06T01:02:25.000Z,7.74
2023-02-06T01:07:24.000Z,7.48
2023-02-06T01:12:24.000Z,7.5
2023-02-06T01:17:24.000Z,7.42
2023-02-06T01:27:25.000Z,7.4
2023-02-06T01:32:24.000Z,7.19
2023-02-06T01:37:25.000Z,7.02
2023-02-06T01:42:24.000Z,6.86
2023-02-06T01:47:24.000Z,7.22
2023-02-06T01:52:25.000Z,7.1
2023-02-06T01:57:24.000Z,7.16
2023-02-06T02:02:25.000Z,7.3
2023-02-06T02:07:24.000Z,7.19
2023-02-06T02:12:25.000Z,7.21
2023-02-06T02:17:24.000Z,7.2
2023-02-06T02:22:24.000Z,7.27
2023-02-06T02:27:25.000Z,7.31
2023-02-06T02:32:24.000Z,7.3
2023-02-06T02:37:23.000Z,7.22
2023-02-06T02:42:24.000Z,7.36
2023-02-06T02:47:24.000Z,7.12
2023-02-06T02:52:24.000Z,6.9
2023-02-06T02:57:24.000Z,6.74
2023-02-06T03:02:25.000Z,6.48
2023-02-06T03:07:25.000Z,6.17
2023-02-06T03:12:25.000Z,6.11
2023-02-06T03:17:24.000Z,5.83
2023-02-06T03:22:25.000Z,6.05
2023-02-06T03:32:24.000Z,5.76
2023-02-06T03:37:24.000Z,6.1
2023-02-06T03:42:25.000Z,7.22
2023-02-06T03:47:24.000Z,6.26
2023-02-06T03:52:24.000Z,5.82
2023-02-06T04:02:24.000Z,5.92
2023-02-06T04:07:24.000Z,5.87
2023-02-06T04:12:24.000Z,5.75
2023-02-06T04:17:24.000Z,5.86
2023-02-06T04:22:25.000Z,5.78
2023-02-06T04:27:24.000Z,5.74
2023-02-06T04:32:25.000Z,6.24
2023-02-06T04:37:24.000Z,5.92
2023-02-06T04:42:24.000Z,6.12
2023-02-06T04:47:25.000Z,6.09
2023-02-06T04:52:24.000Z,5.66
2023-02-06T04:57:25.000Z,5.68
2023-02-06T05:02:24.000Z,5.92
2023-02-06T05:07:24.000Z,5.55
2023-02-06T05:12:24.000Z,5.69
2023-02-06T05:17:25.000Z,5.76
2023-02-06T05:22:24.000Z,5.7
2023-02-06T05:27:25.000Z,5.61
2023-02-06T05:32:24.000Z,5.75
2023-02-06T05:37:25.000Z,5.66
2023-02-06T05:42:24.000Z,5.63
2023-02-06T05:47:24.000Z,5.59
2023-02-06T05:52:24.000Z,5.7
2023-02-06T05:57:25.000Z,5.49
2023-02-06T06:02:24.000Z,5.88
2023-02-06T06:07:25.000Z,5.78
2023-02-06T06:12:24.000Z,5.42
2023-02-06T06:17:24.000Z,5.34
2023-02-06T06:22:24.000Z,5.16
2023-02-06T06:27:24.000Z,5.13
2023-02-06T06:32:25.000Z,4.99
2023-02-06T06:37:24.000Z,5.18
2023-02-06T06:42:25.000Z,5.09
2023-02-06T06:47:24.000Z,5.24
2023-02-06T06:52:24.000Z,5.23
2023-02-06T06:57:24.000Z,5.51
2023-02-06T07:02:24.000Z,5.36
2023-02-06T07:07:24.000Z,5.51
2023-02-06T07:12:24.000Z,5.66
2023-02-06T07:17:24.000Z,5.55
2023-02-06T07:22:25.000Z,5.57
2023-02-06T07:27:24.000Z,5.54
2023-02-06T07:32:24.000Z,5.59
2023-02-06T07:37:25.000Z,5.6
2023-02-06T07:42:24.000Z,5.76
2023-02-06T07:47:25.000Z,6.06
2023-02-06T07:52:24.000Z,6.04
2023-02-06T07:57:24.000Z,5.79
2023-02-06T08:02:24.000Z,5.45
2023-02-06T08:07:24.000Z,5.29
2023-02-06T08:12:24.000Z,5.16
2023-02-06T08:17:25.000Z,5.16
2023-02-06T08:22:24.000Z,5.25
2023-02-06T08:27:24.000Z,5.16
2023-02-06T08:32:24.000Z,5.24
2023-02-06T08:37:24.000Z,5.28
2023-02-06T08:42:25.000Z,5.14
2023-02-06T08:47:24.000Z,5.06
2023-02-06T08:52:24.000Z,5.09
2023-02-06T08:57:24.000Z,5.52
2023-02-06T09:02:24.000Z,5.02
2023-02-06T09:07:25.000Z,5.28
2023-02-06T09:12:25.000Z,5.28
2023-02-06T09:17:24.000Z,5.09
2023-02-06T09:22:25.000Z,5.4
2023-02-06T09:27:24.000Z,5.71
2023-02-06T09:32:25.000Z,5.57
2023-02-06T09:37:24.000Z,5.46
2023-02-06T09:42:25.000Z,5.65
2023-02-06T09:47:24.000Z,5.59
2023-02-06T09:52:24.000Z,5.52
2023-02-06T09:57:24.000Z,5.39
2023-02-06T10:02:25.000Z,5.57
2023-02-06T10:07:25.000Z,5.7
2023-02-06T10:12:24.000Z,5.98
2023-02-06T10:17:25.000Z,5.59
2023-02-06T10:22:25.000Z,5.53
2023-02-06T10:27:24.000Z,5.47
2023-02-06T10:32:24.000Z,5.42
2023-02-06T10:37:24.000Z,5.26
2023-02-06T10:42:24.000Z,5.85
2023-02-06T10:47:24.000Z,5.77
2023-02-06T10:52:24.000Z,5.35
2023-02-06T10:57:25.000Z,5.55
2023-02-06T11:02:25.000Z,5.61
2023-02-06T11:12:25.000Z,6.17
2023-02-06T11:17:24.000Z,6.35
2023-02-06T11:22:25.000Z,6.76
2023-02-06T11:27:25.000Z,7.33
2023-02-06T11:32:25.000Z,7.02
2023-02-06T11:37:24.000Z,7.43
2023-02-06T11:42:25.000Z,8.25
2023-02-06T11:47:24.000Z,8.17
2023-02-06T11:52:25.000Z,14.44
2023-02-06T11:57:24.000Z,8.27
2023-02-06T12:02:25.000Z,8.09
2023-02-06T12:07:24.000Z,8.32
2023-02-06T12:12:24.000Z,8.75
2023-02-06T12:17:24.000Z,9.24
2023-02-06T12:22:24.000Z,9.54
2023-02-06T12:27:25.000Z,8.98
2023-02-06T12:32:24.000Z,8.85
2023-02-06T12:37:24.000Z,8.76
2023-02-06T12:42:24.000Z,8.58
2023-02-06T12:47:25.000Z,9.55
2023-02-06T12:52:25.000Z,9.7
2023-02-06T12:57:24.000Z,9.86
2023-02-06T13:02:24.000Z,10.09
2023-02-06T13:07:25.000Z,9.62
2023-02-06T13:12:25.000Z,9.59
2023-02-06T13:17:25.000Z,9.42
2023-02-06T13:22:25.000Z,9.4
2023-02-06T13:27:24.000Z,9.65
2023-02-06T13:32:24.000Z,9.75
2023-02-06T13:37:24.000Z,11.5
2023-02-06T13:42:25.000Z,11.15
2023-02-06T13:47:24.000Z,11.06
2023-02-06T13:52:24.000Z,10.77
2023-02-06T13:57:24.000Z,9.95
2023-02-06T14:02:24.000Z,9.18
2023-02-06T14:07:24.000Z,9.38
2023-02-06T14:12:24.000Z,9.66
2023-02-06T14:17:24.000Z,9.46
2023-02-06T14:22:25.000Z,9.5
2023-02-06T14:27:24.000Z,9.98
2023-02-06T14:32:25.000Z,9.76
2023-02-06T14:37:24.000Z,9.78
2023-02-06T14:42:25.000Z,9.53
2023-02-06T14:47:24.000Z,10.46
2023-02-06T14:52:24.000Z,10.58
2023-02-06T14:57:24.000Z,10.93
2023-02-06T15:07:24.000Z,11.87
2023-02-06T15:12:25.000Z,12.78
2023-02-06T15:17:24.000Z,12.59
2023-02-06T15:22:24.000Z,12.71
2023-02-06T15:27:25.000Z,12.28
2023-02-06T15:32:24.000Z,12.43
2023-02-06T15:37:25.000Z,12.62
2023-02-06T15:42:24.000Z,12.73
2023-02-06T15:47:24.000Z,13.07
2023-02-06T15:52:25.000Z,13.79
2023-02-06T15:57:24.000Z,13.84
2023-02-06T16:02:25.000Z,11.79
2023-02-06T16:07:24.000Z,11.32
2023-02-06T16:12:24.000Z,12.26
2023-02-06T16:17:25.000Z,12.24
2023-02-06T16:27:25.000Z,11.89
2023-02-06T16:32:25.000Z,11.35
2023-02-06T16:37:24.000Z,11.14
2023-02-06T16:42:24.000Z,11.5
2023-02-06T16:47:25.000Z,10.31
2023-02-06T16:52:24.000Z,10.95
2023-02-06T16:57:24.000Z,10.97
2023-02-06T17:02:24.000Z,10.63
2023-02-06T17:07:24.000Z,10.22
2023-02-06T17:12:25.000Z,10.49
2023-02-06T17:17:25.000Z,9.85
2023-02-06T17:22:25.000Z,10.61
2023-02-06T17:27:24.000Z,9.79
2023-02-06T17:32:24.000Z,9.98
2023-02-06T17:37:25.000Z,10.65
2023-02-06T17:42:24.000Z,10.19
2023-02-06T17:47:25.000Z,11.27
2023-02-06T17:52:24.000Z,11.29
2023-02-06T17:57:25.000Z,11.14
2023-02-06T18:02:24.000Z,11.25
2023-02-06T18:07:25.000Z,10.94
2023-02-06T18:12:25.000Z,10.98
2023-02-06T18:17:25.000Z,10.61
2023-02-06T18:22:24.000Z,9.72
2023-02-06T18:27:24.000Z,10.23
2023-02-06T18:32:25.000Z,10.51
2023-02-06T18:37:24.000Z,10.69
2023-02-06T18:42:25.000Z,11.43
2023-02-06T18:47:24.000Z,9.93
2023-02-06T18:52:25.000Z,9.72
2023-02-06T18:57:24.000Z,9.76
2023-02-06T19:02:25.000Z,9.42
2023-02-06T19:12:24.000Z,9.65
2023-02-06T19:17:25.000Z,10.42
2023-02-06T19:22:24.000Z,10.41
2023-02-06T19:27:25.000Z,10.28
2023-02-06T19:37:25.000Z,11.7
2023-02-06T19:42:24.000Z,12.44
2023-02-06T19:47:25.000Z,12.37
2023-02-06T19:52:24.000Z,12.51
2023-02-06T19:57:24.000Z,12.82
2023-02-06T20:02:24.000Z,12.86
2023-02-06T20:07:24.000Z,12.9
2023-02-06T20:12:25.000Z,12.77
2023-02-06T20:17:24.000Z,12.28
2023-02-06T20:22:25.000Z,12.06
2023-02-06T20:32:25.000Z,11.66
2023-02-06T20:37:24.000Z,11.67
2023-02-06T20:42:25.000Z,11.85
2023-02-06T20:47:24.000Z,11.89
2023-02-06T20:52:25.000Z,11.53
2023-02-06T20:57:24.000Z,11.88
2023-02-06T21:02:25.000Z,12.02
2023-02-06T21:07:24.000Z,11.87
2023-02-06T21:12:24.000Z,11.69
2023-02-06T21:17:24.000Z,11.78
2023-02-06T21:22:24.000Z,11.76
2023-02-06T21:27:24.000Z,11.75
2023-02-06T21:32:24.000Z,11.54
2023-02-06T21:37:25.000Z,12.08
2023-02-06T21:42:24.000Z,12.75
2023-02-06T21:47:25.000Z,13.5
2023-02-06T21:52:24.000Z,12.96
2023-02-06T21:57:25.000Z,12.56
2023-02-06T22:02:24.000Z,11.85
2023-02-06T22:07:25.000Z,12.03
2023-02-06T22:12:24.000Z,11.72
2023-02-06T22:17:24.000Z,11.73
2023-02-06T22:22:25.000Z,11.81
2023-02-06T22:27:25.000Z,11.95
2023-02-06T22:32:24.000Z,12.36
2023-02-06T22:37:25.000Z,12.69
2023-02-06T22:42:24.000Z,12.85
2023-02-06T22:47:25.000Z,12.88
2023-02-06T22:52:24.000Z,13.7
2023-02-06T22:57:24.000Z,13.45
2023-02-06T23:02:24.000Z,12.9
2023-02-06T23:12:25.000Z,12.53
2023-02-06T23:17:24.000Z,12.2
2023-02-06T23:22:25.000Z,12.3
2023-02-06T23:27:25.000Z,12.59
2023-02-06T23:37:24.000Z,12.52
2023-02-06T23:42:25.000Z,12.59
2023-02-06T23:47:24.000Z,12.64
2023-02-06T23:52:25.000Z,12.77
2023-02-06T23:57:24.000Z,12.61
